North Houston, Texas
Current Conditions -  °F | °C
As of 1:53 PM on Monday 24 Nov 2014 (Local Time) from KDWH Reporting Station
Clear Clear  
Wind Chill: 63°   Ceiling: Unl
Heat Index: 63°   Visibility: 10mi
Dew Point: 30°   Wind: 9mph
Humidity: 29%   Direction: 360°N
Pressure: 30.03"   Gusts: NA
Location:  29.93°N, 95.52°W
Report Text: KDWH 241953Z 36008KT 10SM CLR 17/M01 A3003 RMK AO2 SLP169 T01721011
Loading
Personal Weather Stations






























Interactive Weather Map New forecast layout! Learn more

10-Day Weather Forecast

Advertisements
Track Severe Weather on mobile